Time;durP1;ratioP1;P1;durP2;ratioP2;P2;SDS_P1;SDS_P2;PMS_P1;PMS_P2;Temp;Humidity;BMP_temperature;BMP_pressure;BME280_temperature;BME280_humidity;BME280_pressure;Samples;Min_cycle;Max_cycle;Signal;HPM_P1;HPM_P2
2021/12/11 00:01:16;;;;;;;;;;;21.60;45.50;;;;;;4954395;28;19957;-74
2021/12/11 00:03:43;;;;;;;;;;;21.60;45.70;;;;;;4954333;28;19918;-74
2021/12/11 00:06:14;;;;;;;;;;;21.60;45.70;;;;;;4936612;29;20292;-74
2021/12/11 00:08:41;;;;;;;;;;;21.60;45.80;;;;;;4933042;28;19996;-75
2021/12/11 00:11:15;;;;;;;;;;;21.70;46.00;;;;;;4954131;28;20460;-75
2021/12/11 00:13:42;;;;;;;;;;;21.70;46.10;;;;;;4954216;28;20494;-75
2021/12/11 00:16:10;;;;;;;;;;;21.70;46.10;;;;;;4930711;28;19921;-75
2021/12/11 00:18:36;;;;;;;;;;;21.70;46.20;;;;;;4962733;28;19923;-75
2021/12/11 00:21:02;;;;;;;;;;;21.70;46.30;;;;;;4954514;28;19962;-74
2021/12/11 00:23:39;;;;;;;;;;;21.70;46.40;;;;;;4952409;28;20010;-74
2021/12/11 00:26:08;;;;;;;;;;;21.80;46.50;;;;;;4953567;28;20060;-74
2021/12/11 00:28:42;;;;;;;;;;;21.80;46.50;;;;;;4953528;28;19914;-75
2021/12/11 00:31:08;;;;;;;;;;;21.80;46.70;;;;;;4953742;28;20195;-74
2021/12/11 00:33:33;;;;;;;;;;;21.80;46.70;;;;;;4926135;28;19910;-75
2021/12/11 00:35:59;;;;;;;;;;;21.80;46.90;;;;;;4953433;28;19910;-74
2021/12/11 00:38:32;;;;;;;;;;;21.80;46.90;;;;;;4937418;28;20013;-75
2021/12/11 00:40:58;;;;;;;;;;;21.80;47.00;;;;;;4961537;28;19914;-74
2021/12/11 00:43:28;;;;;;;;;;;21.80;47.00;;;;;;4943954;28;19918;-75
2021/12/11 00:45:54;;;;;;;;;;;21.80;47.10;;;;;;4969054;28;20293;-74
2021/12/11 00:48:21;;;;;;;;;;;21.80;47.20;;;;;;4958266;28;19911;-74
2021/12/11 00:50:46;;;;;;;;;;;21.80;47.20;;;;;;4953559;28;19917;-75
2021/12/11 00:53:14;;;;;;;;;;;21.80;47.30;;;;;;4935669;28;19918;-75
2021/12/11 00:55:42;;;;;;;;;;;21.80;47.30;;;;;;4935828;29;19910;-75
2021/12/11 00:58:12;;;;;;;;;;;21.90;47.40;;;;;;4968545;28;19918;-74
2021/12/11 01:00:41;;;;;;;;;;;21.80;47.60;;;;;;4970288;28;19984;-75
2021/12/11 01:03:07;;;;;;;;;;;21.80;47.60;;;;;;4959681;28;19918;-75
2021/12/11 01:05:34;;;;;;;;;;;21.80;47.60;;;;;;4965284;28;19965;-75
2021/12/11 01:08:00;;;;;;;;;;;21.90;47.70;;;;;;4952917;28;20299;-75
2021/12/11 01:10:27;;;;;;;;;;;21.80;47.70;;;;;;4953018;28;19991;-75
2021/12/11 01:13:01;;;;;;;;;;;21.90;47.80;;;;;;4952910;28;19980;-75
2021/12/11 01:15:32;;;;;;;;;;;21.90;47.80;;;;;;4931748;28;19911;-75
2021/12/11 01:18:21;;;;;;;;;;;21.90;47.80;;;;;;4952908;28;20445;-75
2021/12/11 01:20:56;;;;;;;;;;;21.90;47.90;;;;;;4950992;28;19914;-75
2021/12/11 01:26:02;;;;;;;;;;;21.90;48.00;;;;;;4952994;28;20350;-74
2021/12/11 01:28:28;;;;;;;;;;;21.90;48.00;;;;;;4960031;28;19965;-74
2021/12/11 01:30:54;;;;;;;;;;;21.90;48.10;;;;;;4954107;28;19910;-75
2021/12/11 01:33:20;;;;;;;;;;;21.90;48.20;;;;;;4969599;28;19964;-75
2021/12/11 01:35:45;;;;;;;;;;;21.90;48.10;;;;;;4950494;28;19941;-75
2021/12/11 01:38:13;;;;;;;;;;;21.90;48.10;;;;;;4951866;28;19964;-75
2021/12/11 01:40:39;;;;;;;;;;;21.90;48.20;;;;;;4952416;28;19914;-75
2021/12/11 01:43:06;;;;;;;;;;;21.90;48.20;;;;;;4968030;28;20365;-75
2021/12/11 01:45:33;;;;;;;;;;;21.90;48.20;;;;;;4951077;28;19911;-75
2021/12/11 01:47:59;;;;;;;;;;;21.90;48.20;;;;;;4952699;28;19914;-75
2021/12/11 01:50:31;;;;;;;;;;;22.00;48.40;;;;;;4951341;28;19941;-75
2021/12/11 01:53:00;;;;;;;;;;;22.00;48.40;;;;;;4935100;29;19910;-75
2021/12/11 01:55:47;;;;;;;;;;;22.00;48.40;;;;;;4952166;29;19914;-75
2021/12/11 01:58:14;;;;;;;;;;;21.90;48.50;;;;;;4951631;28;20433;-74
2021/12/11 02:00:43;;;;;;;;;;;22.00;48.60;;;;;;4952827;28;20424;-75
2021/12/11 02:03:12;;;;;;;;;;;22.00;48.70;;;;;;4953493;29;19921;-74
2021/12/11 02:05:38;;;;;;;;;;;22.00;48.80;;;;;;4935755;29;19914;-73
2021/12/11 02:08:06;;;;;;;;;;;22.00;48.80;;;;;;4952421;28;19914;-74
2021/12/11 02:11:09;;;;;;;;;;;22.00;48.80;;;;;;4919406;29;19917;-75
2021/12/11 02:13:43;;;;;;;;;;;22.00;48.90;;;;;;4893852;29;19918;-75
2021/12/11 02:16:20;;;;;;;;;;;22.00;48.90;;;;;;4911678;29;19915;-75
2021/12/11 02:18:49;;;;;;;;;;;22.00;49.00;;;;;;4937970;29;19926;-74
2021/12/11 02:21:18;;;;;;;;;;;22.00;48.80;;;;;;4936336;29;20371;-74
2021/12/11 02:23:50;;;;;;;;;;;22.10;48.90;;;;;;4953375;29;20012;-77
2021/12/11 02:26:16;;;;;;;;;;;22.10;49.00;;;;;;4952987;29;19922;-74
2021/12/11 02:28:44;;;;;;;;;;;22.00;49.40;;;;;;4920780;29;20262;-74
2021/12/11 02:31:20;;;;;;;;;;;21.90;48.30;;;;;;4936377;29;19973;-73
2021/12/11 02:33:52;;;;;;;;;;;21.90;47.80;;;;;;4953083;28;19918;-74
2021/12/11 02:36:32;;;;;;;;;;;21.90;47.20;;;;;;4953072;29;19981;-74
2021/12/11 02:39:02;;;;;;;;;;;21.90;47.00;;;;;;4937872;29;20321;-74
2021/12/11 02:41:48;;;;;;;;;;;21.90;47.10;;;;;;4952965;29;20124;-74
2021/12/11 02:44:22;;;;;;;;;;;21.90;47.20;;;;;;4956033;28;19910;-74
2021/12/11 02:46:58;;;;;;;;;;;21.90;47.40;;;;;;4924263;29;19910;-74
2021/12/11 02:49:32;;;;;;;;;;;21.90;47.70;;;;;;4957070;29;19910;-74
2021/12/11 02:52:01;;;;;;;;;;;21.90;47.60;;;;;;4957065;29;19911;-74
2021/12/11 02:54:36;;;;;;;;;;;21.90;47.60;;;;;;4956355;29;20484;-74
2021/12/11 02:57:05;;;;;;;;;;;21.90;47.70;;;;;;4939640;29;19965;-74
2021/12/11 02:59:38;;;;;;;;;;;21.90;47.80;;;;;;4939297;29;19911;-74
2021/12/11 03:02:09;;;;;;;;;;;21.90;47.80;;;;;;4939551;29;20233;-74
2021/12/11 03:04:39;;;;;;;;;;;21.90;47.90;;;;;;4955547;29;19911;-74
2021/12/11 03:07:07;;;;;;;;;;;21.90;48.50;;;;;;4956360;29;20409;-74
2021/12/11 03:09:35;;;;;;;;;;;21.90;48.00;;;;;;4956712;29;19914;-73
2021/12/11 03:12:02;;;;;;;;;;;21.90;48.20;;;;;;4956322;28;20322;-74
2021/12/11 03:14:28;;;;;;;;;;;21.80;48.20;;;;;;4956202;29;19911;-74
2021/12/11 03:16:54;;;;;;;;;;;21.80;48.20;;;;;;4955303;29;20004;-74
2021/12/11 03:19:23;;;;;;;;;;;21.80;48.20;;;;;;4956497;29;19965;-74
2021/12/11 03:21:49;;;;;;;;;;;21.80;48.40;;;;;;4954881;29;19914;-74
2021/12/11 03:24:15;;;;;;;;;;;21.80;48.70;;;;;;4938958;29;19917;-74
2021/12/11 03:26:41;;;;;;;;;;;21.80;48.50;;;;;;4956319;29;20290;-74
2021/12/11 03:29:07;;;;;;;;;;;21.80;48.60;;;;;;4956716;28;19970;-74
2021/12/11 03:31:36;;;;;;;;;;;21.70;48.50;;;;;;4923044;29;20312;-74
2021/12/11 03:34:03;;;;;;;;;;;21.70;48.80;;;;;;4955989;28;19914;-74
2021/12/11 03:36:32;;;;;;;;;;;21.80;49.70;;;;;;4955803;29;20381;-74
2021/12/11 03:38:59;;;;;;;;;;;21.70;49.10;;;;;;4955487;28;19918;-74
2021/12/11 03:41:25;;;;;;;;;;;21.70;49.30;;;;;;4955825;29;19910;-74
2021/12/11 03:43:51;;;;;;;;;;;21.70;49.30;;;;;;4955883;29;20168;-74
2021/12/11 03:46:17;;;;;;;;;;;21.70;49.00;;;;;;4955771;28;19915;-74
2021/12/11 03:49:09;;;;;;;;;;;21.70;48.70;;;;;;4955953;28;19932;-74
2021/12/11 03:51:36;;;;;;;;;;;21.80;49.90;;;;;;4954028;29;20367;-74
2021/12/11 03:54:03;;;;;;;;;;;21.70;49.20;;;;;;4955513;29;20327;-74
2021/12/11 03:56:29;;;;;;;;;;;21.70;49.20;;;;;;4955599;29;19965;-74
2021/12/11 03:58:55;;;;;;;;;;;21.70;49.10;;;;;;4938561;29;19945;-74
2021/12/11 04:01:28;;;;;;;;;;;21.70;49.40;;;;;;4955928;28;19914;-74
2021/12/11 04:03:57;;;;;;;;;;;21.80;49.60;;;;;;4938699;29;19914;-74
2021/12/11 04:06:23;;;;;;;;;;;21.80;49.30;;;;;;4955201;28;19910;-73
2021/12/11 04:08:49;;;;;;;;;;;21.70;49.60;;;;;;4955546;28;19910;-74
2021/12/11 04:11:18;;;;;;;;;;;21.80;49.60;;;;;;4955005;29;19965;-74
2021/12/11 04:13:45;;;;;;;;;;;21.70;49.50;;;;;;4955487;29;19911;-74
2021/12/11 04:16:14;;;;;;;;;;;21.70;49.40;;;;;;4955315;28;19911;-73
2021/12/11 04:18:40;;;;;;;;;;;21.80;49.90;;;;;;4938586;29;20338;-73
2021/12/11 04:21:06;;;;;;;;;;;21.80;49.80;;;;;;4955394;28;19969;-74
2021/12/11 04:23:32;;;;;;;;;;;21.80;49.90;;;;;;4955331;29;19910;-73
2021/12/11 04:25:58;;;;;;;;;;;21.80;49.60;;;;;;4955361;29;20345;-74
2021/12/11 04:28:25;;;;;;;;;;;21.70;49.50;;;;;;4953738;28;20338;-74
2021/12/11 04:30:53;;;;;;;;;;;21.70;49.60;;;;;;4953965;29;19917;-74
2021/12/11 04:33:19;;;;;;;;;;;21.70;49.70;;;;;;4971137;23;19910;31
2021/12/11 04:35:45;;;;;;;;;;;21.70;50.40;;;;;;4941300;28;19972;-77
2021/12/11 04:38:12;;;;;;;;;;;21.70;49.60;;;;;;4973684;28;20676;-77
2021/12/11 04:40:40;;;;;;;;;;;21.70;49.50;;;;;;4957159;28;19917;-77
2021/12/11 04:43:11;;;;;;;;;;;21.70;49.50;;;;;;4956793;28;19910;-77
2021/12/11 04:45:40;;;;;;;;;;;21.70;49.50;;;;;;4954423;29;20403;-77
2021/12/11 04:48:36;;;;;;;;;;;21.70;49.50;;;;;;4937847;29;19914;-77
2021/12/11 04:51:02;;;;;;;;;;;21.70;49.70;;;;;;4953909;29;20013;-77
2021/12/11 05:11:47;;;;;;;;;;;21.70;50.00;;;;;;4953997;29;19911;-77
2021/12/11 05:14:14;;;;;;;;;;;21.70;49.80;;;;;;4921192;29;19911;-77
2021/12/11 05:16:40;;;;;;;;;;;21.70;49.90;;;;;;4953857;29;20026;-76
2021/12/11 05:19:06;;;;;;;;;;;21.70;49.70;;;;;;4936686;29;19921;-76
2021/12/11 05:21:33;;;;;;;;;;;21.70;49.80;;;;;;4954078;29;19914;-77
2021/12/11 05:23:59;;;;;;;;;;;21.70;50.00;;;;;;4954093;28;20001;-76
2021/12/11 05:26:25;;;;;;;;;;;21.70;49.80;;;;;;4953784;29;20049;-77
2021/12/11 05:28:51;;;;;;;;;;;21.70;50.10;;;;;;4954127;29;19966;-77
2021/12/11 05:31:16;;;;;;;;;;;21.70;49.70;;;;;;4954027;29;20001;-77
2021/12/11 05:33:42;;;;;;;;;;;21.70;50.00;;;;;;4951943;29;20432;-78
2021/12/11 05:36:09;;;;;;;;;;;21.70;49.90;;;;;;4953974;28;20005;-78
2021/12/11 05:38:39;;;;;;;;;;;21.70;49.80;;;;;;4953437;29;19918;-77
2021/12/11 05:41:06;;;;;;;;;;;21.70;49.80;;;;;;4935911;29;19910;-77
2021/12/11 05:43:31;;;;;;;;;;;21.70;49.90;;;;;;4952659;28;20362;-77
2021/12/11 05:45:57;;;;;;;;;;;21.70;50.10;;;;;;4953690;29;19957;-77
2021/12/11 05:48:23;;;;;;;;;;;21.70;50.10;;;;;;4953259;29;19916;-77
2021/12/11 05:50:51;;;;;;;;;;;21.70;50.10;;;;;;4936501;29;19921;-77
2021/12/11 05:53:18;;;;;;;;;;;21.70;50.10;;;;;;4954040;28;19950;-77
2021/12/11 05:55:46;;;;;;;;;;;21.70;50.10;;;;;;4953405;29;19910;-77
2021/12/11 05:58:14;;;;;;;;;;;21.70;50.20;;;;;;4953559;29;19960;-77
2021/12/11 06:00:42;;;;;;;;;;;21.70;50.30;;;;;;4953962;29;19937;-77
2021/12/11 06:03:08;;;;;;;;;;;21.70;50.40;;;;;;4953568;29;19961;-77
2021/12/11 06:05:34;;;;;;;;;;;21.70;50.40;;;;;;4948513;29;19911;-77
2021/12/11 06:08:00;;;;;;;;;;;21.70;50.20;;;;;;4953316;28;19937;-77
2021/12/11 06:10:27;;;;;;;;;;;21.70;50.20;;;;;;4952629;29;20333;-77
2021/12/11 06:12:55;;;;;;;;;;;21.70;50.10;;;;;;4952686;29;19993;-77
2021/12/11 06:15:20;;;;;;;;;;;21.70;50.20;;;;;;4953053;29;19910;-77
2021/12/11 06:17:46;;;;;;;;;;;21.70;50.30;;;;;;4953519;29;19945;-77
2021/12/11 06:20:14;;;;;;;;;;;21.70;50.30;;;;;;4953420;28;20298;-77
2021/12/11 06:22:39;;;;;;;;;;;21.70;50.30;;;;;;4953222;29;19918;-77
2021/12/11 06:25:08;;;;;;;;;;;21.70;50.30;;;;;;4951804;29;20367;-77
2021/12/11 06:27:34;;;;;;;;;;;21.70;50.40;;;;;;4953444;28;19973;-78
2021/12/11 06:29:59;;;;;;;;;;;21.70;50.40;;;;;;4953301;28;19942;-77
2021/12/11 06:32:25;;;;;;;;;;;21.70;50.30;;;;;;4920756;29;19914;-77
2021/12/11 06:34:52;;;;;;;;;;;21.60;50.40;;;;;;4951922;29;19915;-77
2021/12/11 06:37:20;;;;;;;;;;;21.60;51.00;;;;;;4935974;29;19965;-78
2021/12/11 06:39:47;;;;;;;;;;;21.60;50.30;;;;;;4934380;29;20372;-77
2021/12/11 06:42:13;;;;;;;;;;;21.60;50.40;;;;;;4949094;29;19919;-78
2021/12/11 06:44:42;;;;;;;;;;;21.70;50.60;;;;;;4933698;29;20050;-78
2021/12/11 06:47:09;;;;;;;;;;;21.70;50.50;;;;;;4948978;29;19911;-77
2021/12/11 06:49:35;;;;;;;;;;;21.70;50.50;;;;;;4934220;29;19918;-77
2021/12/11 06:52:03;;;;;;;;;;;21.70;50.40;;;;;;4948808;29;19910;-77
2021/12/11 06:54:29;;;;;;;;;;;21.70;50.40;;;;;;4948470;29;19961;-77
2021/12/11 06:56:55;;;;;;;;;;;21.70;50.40;;;;;;4933970;29;20358;-76
2021/12/11 06:59:21;;;;;;;;;;;21.70;50.40;;;;;;4933984;29;19915;-76
2021/12/11 07:01:47;;;;;;;;;;;21.70;50.50;;;;;;4934165;29;20050;-76
2021/12/11 07:04:13;;;;;;;;;;;21.70;50.40;;;;;;4948559;29;19962;-77
2021/12/11 07:06:40;;;;;;;;;;;21.70;50.50;;;;;;4934244;29;19911;-76
2021/12/11 07:09:07;;;;;;;;;;;21.70;50.50;;;;;;4948589;29;20279;-77
2021/12/11 07:11:33;;;;;;;;;;;21.70;50.50;;;;;;4928834;29;20386;-77
2021/12/11 07:14:00;;;;;;;;;;;21.70;50.50;;;;;;4952817;28;19914;-77
2021/12/11 07:16:26;;;;;;;;;;;21.70;50.60;;;;;;4952751;28;19911;-77
2021/12/11 07:18:51;;;;;;;;;;;21.60;50.60;;;;;;4952868;28;19969;-76
2021/12/11 07:21:17;;;;;;;;;;;21.70;50.70;;;;;;4936052;29;19997;-77
2021/12/11 07:23:47;;;;;;;;;;;21.70;50.60;;;;;;4953040;29;19910;-77
2021/12/11 07:26:16;;;;;;;;;;;21.70;50.60;;;;;;4954628;29;19993;-77
2021/12/11 07:28:50;;;;;;;;;;;21.70;50.70;;;;;;4956273;28;19965;-77
2021/12/11 07:31:16;;;;;;;;;;;21.70;50.70;;;;;;4956342;29;20293;-77
2021/12/11 07:33:42;;;;;;;;;;;21.60;50.70;;;;;;4956113;29;20311;-77
2021/12/11 07:36:08;;;;;;;;;;;21.60;50.60;;;;;;4955945;29;19921;-77
2021/12/11 07:38:34;;;;;;;;;;;21.70;50.70;;;;;;4939047;29;20010;-76
2021/12/11 07:41:02;;;;;;;;;;;21.70;50.90;;;;;;4954926;29;20446;-77
2021/12/11 07:43:28;;;;;;;;;;;21.60;50.60;;;;;;4955646;29;19917;-76
2021/12/11 07:45:55;;;;;;;;;;;21.70;50.80;;;;;;4955386;28;19910;-77
2021/12/11 07:48:21;;;;;;;;;;;21.60;50.70;;;;;;4955524;28;19910;-77
2021/12/11 07:50:47;;;;;;;;;;;21.70;50.70;;;;;;4955690;28;20436;-76
2021/12/11 07:53:13;;;;;;;;;;;21.60;50.70;;;;;;4955694;29;19917;-77
2021/12/11 07:55:39;;;;;;;;;;;21.60;50.80;;;;;;4938219;29;20325;-77
2021/12/11 07:58:05;;;;;;;;;;;21.60;50.80;;;;;;4922887;29;19921;-77
2021/12/11 08:00:32;;;;;;;;;;;21.60;50.90;;;;;;4938212;29;19917;-77
2021/12/11 08:02:58;;;;;;;;;;;21.60;50.80;;;;;;4955702;28;19933;-77
2021/12/11 08:05:26;;;;;;;;;;;21.60;50.80;;;;;;4937975;29;19914;-77
2021/12/11 08:07:51;;;;;;;;;;;21.60;50.90;;;;;;4954507;28;20282;-77
2021/12/11 08:10:19;;;;;;;;;;;21.70;50.80;;;;;;4955809;29;19910;-77
2021/12/11 08:12:46;;;;;;;;;;;21.70;50.90;;;;;;4954556;28;20414;-77
2021/12/11 08:15:12;;;;;;;;;;;21.70;50.90;;;;;;4954964;29;19910;-77
2021/12/11 08:17:38;;;;;;;;;;;21.70;50.90;;;;;;4953951;28;19961;-76
2021/12/11 08:20:06;;;;;;;;;;;21.70;50.80;;;;;;4955386;28;20319;-77
2021/12/11 08:22:32;;;;;;;;;;;21.70;50.80;;;;;;4955311;29;19997;-77
2021/12/11 08:24:57;;;;;;;;;;;21.70;50.80;;;;;;4955111;28;20009;-77
2021/12/11 08:27:23;;;;;;;;;;;21.70;50.90;;;;;;4955183;28;19960;-77
2021/12/11 08:29:50;;;;;;;;;;;21.70;51.20;;;;;;4938088;29;19914;-77
2021/12/11 08:32:17;;;;;;;;;;;21.60;50.80;;;;;;4954166;29;19911;-77
2021/12/11 08:34:43;;;;;;;;;;;21.60;50.90;;;;;;4954236;28;19914;-77
2021/12/11 08:37:10;;;;;;;;;;;21.60;50.80;;;;;;4938632;29;19910;-78
2021/12/11 08:39:36;;;;;;;;;;;21.60;51.00;;;;;;4948857;28;19914;-77
2021/12/11 08:42:03;;;;;;;;;;;21.60;51.00;;;;;;4938014;29;19969;-76
2021/12/11 08:44:35;;;;;;;;;;;21.60;51.00;;;;;;4937270;29;19961;-77
2021/12/11 08:47:02;;;;;;;;;;;21.70;50.90;;;;;;4955056;29;19917;-77
2021/12/11 08:49:29;;;;;;;;;;;21.60;51.10;;;;;;4954882;29;19919;-77
2021/12/11 08:51:57;;;;;;;;;;;21.60;51.60;;;;;;4954983;28;19997;-78
2021/12/11 08:54:23;;;;;;;;;;;21.60;51.10;;;;;;4955000;29;20042;-77
2021/12/11 08:56:50;;;;;;;;;;;21.60;51.10;;;;;;4922464;29;19921;-77
2021/12/11 08:59:17;;;;;;;;;;;21.60;51.10;;;;;;4938040;29;19925;-77
2021/12/11 09:02:02;;;;;;;;;;;21.70;51.20;;;;;;4938102;29;19911;-77
2021/12/11 09:04:37;;;;;;;;;;;21.70;51.10;;;;;;4955353;29;19910;-78
2021/12/11 09:07:09;;;;;;;;;;;21.60;51.00;;;;;;4938432;29;19917;-77
2021/12/11 09:09:34;;;;;;;;;;;21.70;51.10;;;;;;4953879;28;19917;-77
2021/12/11 09:12:04;;;;;;;;;;;21.70;51.10;;;;;;4936449;29;19910;-77
2021/12/11 09:14:43;;;;;;;;;;;21.70;51.20;;;;;;4951607;29;20342;-77
2021/12/11 09:17:11;;;;;;;;;;;21.70;51.10;;;;;;4937399;29;19921;-77
2021/12/11 09:19:40;;;;;;;;;;;21.70;51.20;;;;;;4953646;29;19910;-77
2021/12/11 09:22:05;;;;;;;;;;;21.70;51.20;;;;;;4955194;29;19917;-77
2021/12/11 09:24:48;;;;;;;;;;;21.70;51.20;;;;;;4953549;28;19910;-77
2021/12/11 09:27:19;;;;;;;;;;;21.70;51.40;;;;;;4954282;29;19917;-77
2021/12/11 09:29:48;;;;;;;;;;;21.70;51.20;;;;;;4954147;28;20363;-77
2021/12/11 09:32:14;;;;;;;;;;;21.70;51.10;;;;;;4953869;29;20033;-78
2021/12/11 09:35:06;;;;;;;;;;;21.70;51.10;;;;;;4953684;29;20012;-78
2021/12/11 09:37:32;;;;;;;;;;;21.70;51.30;;;;;;4907924;29;19921;-78
2021/12/11 09:40:20;;;;;;;;;;;21.70;51.30;;;;;;4954234;28;19914;-77
2021/12/11 09:42:46;;;;;;;;;;;21.70;51.20;;;;;;4953387;28;20303;-75
2021/12/11 09:45:14;;;;;;;;;;;21.70;51.20;;;;;;4953468;28;19910;-75
2021/12/11 09:47:45;;;;;;;;;;;21.70;51.20;;;;;;4936131;29;19914;-75
2021/12/11 09:50:15;;;;;;;;;;;21.70;51.20;;;;;;4953884;29;20402;-75
2021/12/11 09:52:45;;;;;;;;;;;21.70;51.30;;;;;;4953851;29;19911;-75
2021/12/11 09:55:14;;;;;;;;;;;21.70;51.40;;;;;;4953699;29;19961;-75
2021/12/11 09:57:46;;;;;;;;;;;21.70;51.40;;;;;;4936009;29;19921;-75
2021/12/11 10:00:17;;;;;;;;;;;21.70;51.30;;;;;;4953822;29;20346;-75
2021/12/11 10:02:43;;;;;;;;;;;21.70;51.30;;;;;;4953788;29;19914;-75
2021/12/11 10:05:28;;;;;;;;;;;21.70;51.40;;;;;;4953226;28;20335;-76
2021/12/11 10:08:25;;;;;;;;;;;21.70;51.30;;;;;;4953041;28;20000;-76
2021/12/11 10:10:40;;;;;;;;;;;21.70;51.40;;;;;;4965443;28;19914;-76
2021/12/11 10:13:05;;;;;;;;;;;21.70;51.40;;;;;;4936126;28;20344;-75
2021/12/11 10:15:38;;;;;;;;;;;21.70;51.50;;;;;;4957255;28;19911;-76
2021/12/11 10:18:06;;;;;;;;;;;21.70;51.30;;;;;;4953370;29;19918;-76
2021/12/11 10:20:34;;;;;;;;;;;21.70;51.40;;;;;;4936475;29;19953;-77
2021/12/11 10:23:00;;;;;;;;;;;21.70;51.30;;;;;;4936319;29;20017;-76
2021/12/11 10:25:30;;;;;;;;;;;21.70;51.30;;;;;;4953306;29;19930;-76
2021/12/11 10:28:00;;;;;;;;;;;21.70;51.40;;;;;;4920484;29;19917;-76
2021/12/11 10:30:27;;;;;;;;;;;21.70;51.60;;;;;;4935926;29;19914;-76
2021/12/11 10:32:53;;;;;;;;;;;21.70;51.40;;;;;;4953264;29;20390;-76
2021/12/11 10:35:21;;;;;;;;;;;21.70;51.40;;;;;;4979773;23;19953;-85
2021/12/11 10:37:47;;;;;;;;;;;21.70;51.50;;;;;;4973709;28;20255;-86
2021/12/11 10:40:19;;;;;;;;;;;21.70;51.50;;;;;;4972994;28;19914;-86
2021/12/11 10:42:49;;;;;;;;;;;21.70;51.50;;;;;;4957612;28;19917;-87
2021/12/11 10:45:15;;;;;;;;;;;21.70;51.40;;;;;;4927848;29;19911;-86
2021/12/11 10:47:49;;;;;;;;;;;21.70;51.50;;;;;;4954204;28;19918;-86
2021/12/11 10:50:23;;;;;;;;;;;21.70;51.50;;;;;;4954195;29;19927;-87
2021/12/11 10:52:49;;;;;;;;;;;21.70;51.40;;;;;;4955375;29;19911;-86
2021/12/11 10:55:17;;;;;;;;;;;21.80;51.60;;;;;;4937792;29;19917;-86
2021/12/11 10:57:43;;;;;;;;;;;21.80;51.50;;;;;;4922224;29;19961;-86
2021/12/11 11:00:16;;;;;;;;;;;21.80;51.50;;;;;;4925241;29;19914;-86
2021/12/11 11:02:42;;;;;;;;;;;21.80;51.40;;;;;;4925940;29;19997;-88
2021/12/11 11:05:11;;;;;;;;;;;21.80;51.50;;;;;;4928134;29;19911;-89
2021/12/11 11:07:37;;;;;;;;;;;21.80;51.80;;;;;;4927891;29;19918;-89
2021/12/11 11:10:06;;;;;;;;;;;21.80;51.90;;;;;;4926683;29;20274;-89
2021/12/11 11:12:32;;;;;;;;;;;21.80;51.70;;;;;;4926523;29;19965;-90
2021/12/11 11:14:58;;;;;;;;;;;21.80;51.60;;;;;;4925667;29;19918;-88
2021/12/11 11:17:27;;;;;;;;;;;21.80;51.60;;;;;;4940823;29;19921;-87
2021/12/11 11:19:54;;;;;;;;;;;21.80;51.60;;;;;;4925629;29;19911;-89
2021/12/11 11:22:22;;;;;;;;;;;21.80;51.80;;;;;;4926048;29;19997;-90
2021/12/11 11:24:53;;;;;;;;;;;21.80;52.10;;;;;;4941674;29;19910;-86
2021/12/11 11:27:19;;;;;;;;;;;21.80;51.70;;;;;;4922512;29;19914;-90
2021/12/11 11:29:45;;;;;;;;;;;21.70;51.70;;;;;;4907126;29;19910;-89
2021/12/11 11:32:13;;;;;;;;;;;21.70;51.70;;;;;;4938191;29;20355;-88
2021/12/11 11:34:41;;;;;;;;;;;21.80;51.70;;;;;;4932487;29;19957;-85
2021/12/11 11:37:12;;;;;;;;;;;21.80;51.70;;;;;;4933415;29;19915;-81
2021/12/11 11:39:38;;;;;;;;;;;21.80;51.90;;;;;;4936775;29;19910;-83
2021/12/11 11:42:07;;;;;;;;;;;21.70;50.70;;;;;;4936935;29;20389;-83
2021/12/11 11:44:32;;;;;;;;;;;21.10;43.30;;;;;;4936354;29;19911;-84
2021/12/11 11:47:00;;;;;;;;;;;20.80;41.20;;;;;;4922210;29;19917;-92
2021/12/11 11:49:26;;;;;;;;;;;20.60;42.10;;;;;;4945957;28;19917;-90
2021/12/11 11:51:57;;;;;;;;;;;20.70;44.70;;;;;;4960809;28;19910;-93
2021/12/11 12:00:41;;;;;;;;;;;21.20;42.50;;;;;;4971062;28;19950;-89
2021/12/11 12:03:12;;;;;;;;;;;21.50;44.30;;;;;;4965434;28;20014;-89
2021/12/11 12:05:39;;;;;;;;;;;21.60;46.10;;;;;;4942424;28;19914;-90
2021/12/11 12:08:06;;;;;;;;;;;21.80;48.20;;;;;;4953301;28;19910;-89
2021/12/11 12:10:33;;;;;;;;;;;21.90;47.40;;;;;;4953479;29;19914;-90
2021/12/11 12:12:59;;;;;;;;;;;21.90;49.80;;;;;;4927991;29;19910;-88
2021/12/11 12:15:27;;;;;;;;;;;22.00;50.40;;;;;;4926639;29;20367;-88
2021/12/11 12:17:53;;;;;;;;;;;22.00;49.90;;;;;;4927983;29;20299;-89
2021/12/11 12:20:19;;;;;;;;;;;22.00;48.70;;;;;;4926028;29;19911;-87
2021/12/11 12:22:47;;;;;;;;;;;22.00;48.40;;;;;;4942323;29;20446;-88
2021/12/11 12:25:13;;;;;;;;;;;22.00;48.30;;;;;;4942239;29;19914;-88
2021/12/11 12:27:59;;;;;;;;;;;22.10;49.30;;;;;;4942641;29;19978;-88
2021/12/11 12:30:32;;;;;;;;;;;22.10;48.90;;;;;;4926117;29;20347;-88
2021/12/11 12:32:59;;;;;;;;;;;22.10;49.80;;;;;;4941114;29;20355;-88
2021/12/11 12:35:27;;;;;;;;;;;22.10;49.30;;;;;;4956315;28;19917;-88
2021/12/11 12:37:53;;;;;;;;;;;22.10;49.50;;;;;;4934415;29;19930;-88
2021/12/11 12:40:27;;;;;;;;;;;22.10;49.60;;;;;;4956765;28;19953;-89
2021/12/11 12:42:57;;;;;;;;;;;22.10;49.90;;;;;;4909378;29;19915;-89
2021/12/11 12:45:35;;;;;;;;;;;22.10;50.20;;;;;;4954750;28;19910;-83
2021/12/11 12:48:05;;;;;;;;;;;22.10;49.20;;;;;;4939468;29;19920;-90
2021/12/11 12:50:35;;;;;;;;;;;22.10;49.00;;;;;;4939327;29;20150;-85
2021/12/11 12:53:01;;;;;;;;;;;22.10;49.40;;;;;;4931367;29;19964;-87
2021/12/11 12:55:26;;;;;;;;;;;22.10;49.20;;;;;;4906561;29;19914;-86
2021/12/11 12:57:56;;;;;;;;;;;22.10;48.50;;;;;;4938163;29;19937;-85
2021/12/11 13:00:24;;;;;;;;;;;22.10;48.10;;;;;;4924405;29;19914;-86
2021/12/11 13:02:51;;;;;;;;;;;22.10;48.30;;;;;;4940097;29;20013;-87
2021/12/11 13:05:20;;;;;;;;;;;22.10;48.10;;;;;;4939338;29;19918;-88
2021/12/11 13:07:46;;;;;;;;;;;22.10;48.80;;;;;;4940187;29;19915;-86
2021/12/11 13:10:15;;;;;;;;;;;22.10;49.60;;;;;;4935452;29;19914;-85
2021/12/11 13:12:42;;;;;;;;;;;22.00;48.40;;;;;;4936397;29;20252;-83
2021/12/11 13:15:11;;;;;;;;;;;22.00;47.90;;;;;;4941069;29;20004;-91
2021/12/11 13:17:39;;;;;;;;;;;22.00;47.90;;;;;;4934056;29;20001;-88
2021/12/11 13:20:08;;;;;;;;;;;22.00;47.70;;;;;;4943662;29;20351;-83
2021/12/11 13:22:38;;;;;;;;;;;22.00;47.70;;;;;;4921882;29;19921;-81
2021/12/11 13:25:06;;;;;;;;;;;22.00;47.90;;;;;;4954246;28;19925;-85
2021/12/11 13:27:32;;;;;;;;;;;22.00;48.20;;;;;;4920866;29;19917;-88
2021/12/11 13:30:02;;;;;;;;;;;22.00;48.40;;;;;;4923230;29;19910;-87
2021/12/11 13:32:30;;;;;;;;;;;22.00;48.60;;;;;;4923444;29;19915;-89
2021/12/11 13:34:58;;;;;;;;;;;22.00;48.70;;;;;;4940925;29;19914;-90
2021/12/11 13:37:25;;;;;;;;;;;22.10;49.00;;;;;;4932067;28;19910;-85
2021/12/11 13:39:51;;;;;;;;;;;22.00;49.10;;;;;;4940133;29;19949;-92
2021/12/11 13:42:22;;;;;;;;;;;22.10;49.30;;;;;;4956040;29;20355;-95
2021/12/11 13:44:49;;;;;;;;;;;22.10;49.40;;;;;;4957181;28;19950;-92
2021/12/11 13:47:18;;;;;;;;;;;22.10;49.50;;;;;;4939860;29;19957;-93
2021/12/11 13:49:44;;;;;;;;;;;22.10;49.60;;;;;;4941120;29;19914;-84
2021/12/11 13:52:10;;;;;;;;;;;22.10;49.80;;;;;;4931870;29;20006;-89
2021/12/11 13:54:38;;;;;;;;;;;22.10;49.70;;;;;;4934454;29;19919;-86
2021/12/11 13:57:09;;;;;;;;;;;22.10;49.80;;;;;;4951690;29;19918;-88
2021/12/11 13:59:35;;;;;;;;;;;22.10;49.80;;;;;;4935362;29;19915;-90
2021/12/11 14:02:02;;;;;;;;;;;22.10;49.60;;;;;;4919733;29;19911;-86
2021/12/11 14:04:29;;;;;;;;;;;22.10;50.70;;;;;;4903651;29;19910;-86
2021/12/11 14:07:35;;;;;;;;;;;21.90;49.60;;;;;;4936473;29;19918;-86
2021/12/11 14:09:52;;;;;;;;;;;21.90;49.50;;;;;;4952184;29;19916;-86
2021/12/11 14:12:19;;;;;;;;;;;21.90;49.00;;;;;;4937474;29;20367;-86
2021/12/11 14:14:45;;;;;;;;;;;22.00;48.50;;;;;;4938199;29;20674;-86
2021/12/11 14:17:11;;;;;;;;;;;22.00;48.30;;;;;;4953915;28;20005;-85
2021/12/11 14:19:36;;;;;;;;;;;22.00;48.20;;;;;;4937930;29;19965;-84
2021/12/11 14:22:06;;;;;;;;;;;22.00;48.30;;;;;;4953581;28;19910;-85
2021/12/11 14:24:33;;;;;;;;;;;22.00;48.30;;;;;;4952777;28;19986;-86
2021/12/11 14:27:02;;;;;;;;;;;22.00;48.40;;;;;;4937811;28;19938;-85
2021/12/11 14:29:28;;;;;;;;;;;22.10;48.50;;;;;;4953551;29;19911;-85
2021/12/11 14:31:53;;;;;;;;;;;22.00;48.50;;;;;;4937194;29;20017;-84
2021/12/11 14:34:19;;;;;;;;;;;22.10;48.60;;;;;;4938357;29;20049;-85
2021/12/11 14:36:48;;;;;;;;;;;22.10;48.60;;;;;;4956960;28;20321;-84
2021/12/11 14:39:15;;;;;;;;;;;22.10;48.60;;;;;;4957118;28;19977;-85
2021/12/11 14:41:43;;;;;;;;;;;22.10;48.70;;;;;;4957146;28;19910;-84
2021/12/11 14:44:12;;;;;;;;;;;22.00;48.70;;;;;;4956826;28;19973;-84
2021/12/11 14:46:38;;;;;;;;;;;22.10;48.80;;;;;;4956689;29;20465;-84
2021/12/11 14:49:04;;;;;;;;;;;22.10;48.80;;;;;;4941238;29;20366;-85
2021/12/11 14:51:30;;;;;;;;;;;22.00;48.80;;;;;;4957673;28;19914;-84